• Join FlightAware (Why Join?)
  • Login
  • US Flag 
Rudolph Flight #1: Arrived! 
04:10PM EST


 

Airport Tracker/Info


-or-


 

Live Flight TrackerFlight Track Log ✈ AWE3794 ✈ 10-Apr-2013 ✈ KCLE - KPHL

Flight Track Log - Related Links

Times and Time Zones

All times are in EDT time to prevent confusion due to time zone crossing. See the AWE3794 flight status page for this flight to view local times or setup timezone preferences in your user account.

Time Position Orientation Groundspeed Altitude Reporting Facility
EDT Latitude Longitude Course Direction KTS MPH feet Rate Location/Type
09:36AM 41.3689 -81.8781 179° South 184 212 2,900  Level Cleveland Center
09:37AM 41.3128 -81.8575 165° South 223 257 5,700 1,980 Climbing Cleveland Center
09:38AM 41.2404 -81.4972 124° Southeast  Level FlightAware Approximate
09:38AM 41.2783 -81.7628 116° Southeast 258 297 7,200  Level Cleveland Center
09:39AM 41.1830 -81.3827 124° Southeast  Level FlightAware Approximate
09:39AM 41.2461 -81.6575 112° Southeast 287 330 9,300  Level Cleveland Center
09:40AM 41.1270 -81.2674 118° Southeast  Level FlightAware Approximate
09:40AM 41.2139 -81.5381 110° East 320 368 11,600  Level Cleveland Center
09:41AM 41.1772 -81.4300 114° Southeast 327 376 14,700 2,220 Climbing Cleveland Center
09:42AM 41.1383 -81.3083 113° Southeast 340 391 16,100 2,100 Climbing Cleveland Center
09:43AM 41.0994 -81.1811 112° Southeast 364 419 18,900 2,640 Climbing Cleveland Center
09:44AM 41.0647 -81.0539 110° East 364 419 21,400 2,220 Climbing Cleveland Center
09:45AM 41.0339 -80.9300 108° East 359 413 23,400 1,800 Climbing Cleveland Center
09:46AM 40.9989 -80.8114 111° Southeast 354 407 25,000 780 Climbing Cleveland Center
09:47AM 40.9594 -80.6739 111° Southeast 360 414 25,000  Level Cleveland Center
09:48AM 40.9197 -80.5364 111° Southeast 387 445 25,000  Level Cleveland Center
09:49AM 40.8800 -80.3964 111° Southeast 397 457 25,000  Level Cleveland Center
09:50AM 40.8381 -80.2619 112° Southeast 397 457 25,000  Level Cleveland Center
09:51AM 40.7917 -80.1278 115° Southeast 397 457 25,000  Level Cleveland Center
09:52AM 40.7453 -79.9939 115° Southeast 397 457 25,000  Level Cleveland Center
09:53AM 40.6986 -79.8575 114° Southeast 397 457 25,000  Level Cleveland Center
09:54AM 40.6456 -79.7156 116° Southeast 397 457 25,000  Level Cleveland Center
09:55AM 40.5964 -79.5822 116° Southeast 402 463 25,000  Level Cleveland Center
09:56AM 40.5472 -79.4519 116° Southeast 402 463 25,000  Level Cleveland Center
09:57AM 40.5000 -79.3217 115° Southeast 402 463 25,000  Level Cleveland Center
09:58AM 40.4486 -79.1889 117° Southeast 402 463 25,000  Level Cleveland Center
09:59AM 40.4008 -79.0592 116° Southeast 402 463 25,000  Level Cleveland Center
10:00AM 40.3492 -78.9267 117° Southeast 402 463 25,000  Level Cleveland Center
10:01AM 40.3158 -78.7914 108° East 402 463 25,000  Level Cleveland Center
10:02AM 40.3156 -78.6444 90° East 388 447 25,000  Level Cleveland Center
10:03AM 40.3169 -78.4972 89° East 393 452 25,000  Level Cleveland Center
10:05AM 40.3136 -78.2275 91° East 411 473 25,000  Level New York Center
10:06AM 40.3117 -78.0611 91° East 416 479 25,000  Level New York Center
10:07AM 40.3122 -77.9142 90° East 411 473 25,000 -660 Level New York Center
10:08AM 40.3108 -77.7614 91° East 406 467 23,700 -1,500 Descending New York Center
10:09AM 40.3111 -77.6169 90° East 406 467 22,000 -1,680 Descending New York Center
10:10AM 40.3067 -77.4725 92° East 406 467 20,400 -1,440 Descending New York Center
10:11AM 40.3067 -77.3281 90° East 406 467 19,100 -1,200 Descending New York Center
10:12AM 40.3017 -77.1886 93° East 391 450 18,100 -1,020 Descending New York Center
10:13AM 40.2978 -77.0658 92° East 386 444 17,100 -600 Descending New York Center
10:14AM 40.2717 -76.9300 104° East 380 437 17,000 -60 Descending New York Center
10:15AM 40.2369 -76.7939 108° East 367 422 17,000 -480 Level New York Center
10:16AM 40.2081 -76.6633 106° East 367 422 16,100 -1,020 Descending New York Center
10:17AM 40.1822 -76.5553 107° East 362 417 15,000 -1,200 Descending New York Center
10:18AM 40.1528 -76.4306 107° East 357 411 13,700 -1,560 Descending New York Center
10:18AM 40.1286 -76.3322 108° East 350 403 12,400 -1,740 Descending FAA TRACON SMA TRACON (SMA)
10:19AM 40.1208 -76.2944 105° East 346 398 12,000 -1,080 Descending FAA TRACON SMA TRACON (SMA)
10:19AM 40.1169 -76.2572 98° East 339 390 11,700 -900 Descending FAA TRACON SMA TRACON (SMA)
10:19AM 40.1139 -76.2128 95° East 346 398 11,400 -900 Descending FAA TRACON SMA TRACON (SMA)
10:20AM 40.1119 -76.1714 94° East 341 392 11,100 -1,080 Descending FAA TRACON SMA TRACON (SMA)
10:20AM 40.1089 -76.1267 95° East 338 389 10,700 -1,080 Descending FAA TRACON SMA TRACON (SMA)
10:20AM 40.1058 -76.0883 96° East 333 383 10,400 -960 Descending FAA TRACON SMA TRACON (SMA)
10:21AM 40.1031 -76.0522 96° East 329 379 10,100 -1,080 Descending FAA TRACON SMA TRACON (SMA)
10:21AM 40.1003 -76.0167 96° East 325 374 9,700 -1,380 Descending FAA TRACON SMA TRACON (SMA)
10:21AM 40.0967 -75.9769 97° East 318 366 9,200 -1,500 Descending FAA TRACON SMA TRACON (SMA)
10:22AM 40.0956 -75.9386 92° East 314 361 8,700 -1,500 Descending FAA TRACON SMA TRACON (SMA)
10:22AM 40.0944 -75.9044 92° East 310 357 8,200 -1,500 Descending FAA TRACON SMA TRACON (SMA)
10:22AM 40.0908 -75.8653 97° East 306 352 7,700 -1,200 Descending FAA TRACON SMA TRACON (SMA)
10:23AM 40.0881 -75.8278 96° East 308 354 7,400 -900 Descending FAA TRACON SMA TRACON (SMA)
10:23AM 40.0850 -75.7936 97° East 308 354 7,100 -1,080 Descending FAA TRACON SMA TRACON (SMA)
10:23AM 40.0817 -75.7533 96° East 307 353 6,700 -1,080 Descending FAA TRACON SMA TRACON (SMA)
10:24AM 40.0797 -75.7178 94° East 306 352 6,400 -960 Descending FAA TRACON SMA TRACON (SMA)
10:24AM 40.0811 -75.6828 87° East 308 354 6,100 -660 Descending FAA TRACON SMA TRACON (SMA)
10:24AM 40.0808 -75.6442 91° East 298 343 6,000 -180 Descending FAA TRACON SMA TRACON (SMA)
10:25AM 40.0808 -75.6083 90° East 299 344 6,000  Level FAA TRACON SMA TRACON (SMA)
10:25AM 40.0811 -75.5744 89° East 301 346 6,000  Level FAA TRACON SMA TRACON (SMA)
10:25AM 40.0822 -75.5339 88° East 301 346 6,000  Level FAA TRACON SMA TRACON (SMA)
10:26AM 40.0831 -75.4986 88° East 301 346 6,000 -300 Level FAA TRACON SMA TRACON (SMA)
10:26AM 40.0822 -75.4653 92° East 304 350 5,800 -900 Descending FAA TRACON SMA TRACON (SMA)
10:26AM 40.0817 -75.4244 91° East 304 350 5,400 -1,080 Descending FAA TRACON SMA TRACON (SMA)
10:27AM 40.0831 -75.3878 87° East 304 350 5,100 -900 Descending FAA TRACON SMA TRACON (SMA)
10:27AM 40.0833 -75.3542 89° East 302 348 4,800 -900 Descending FAA TRACON SMA TRACON (SMA)
10:27AM 40.0869 -75.3131 83° East 300 345 4,500 -1,080 Descending FAA TRACON SMA TRACON (SMA)
10:28AM 40.0836 -75.2803 98° East 290 334 4,100 -780 Descending FAA TRACON SMA TRACON (SMA)
10:28AM 40.0800 -75.2486 98° East 287 330 4,000 -180 Descending FAA TRACON SMA TRACON (SMA)
10:28AM 40.0600 -75.2217 134° Southeast 287 330 4,000  Level FAA TRACON SMA TRACON (SMA)
10:29AM 40.0308 -75.2036 155° Southeast 284 327 4,000  Level FAA TRACON SMA TRACON (SMA)
10:29AM 40.0161 -75.1972 162° South 263 303 4,000  Level FAA TRACON SMA TRACON (SMA)
10:29AM 39.9928 -75.1875 162° South 234 269 4,000  Level FAA TRACON SMA TRACON (SMA)
10:30AM 39.9722 -75.1792 163° South 218 251 4,000  Level FAA TRACON SMA TRACON (SMA)
10:30AM 39.9375 -75.1636 161° South 219 252 4,000  Level FAA TRACON SMA TRACON (SMA)
10:31AM 39.9150 -75.1539 162° South 218 251 4,000  Level FAA TRACON SMA TRACON (SMA)
10:31AM 39.8994 -75.1478 163° South 217 250 4,000 -180 Level FAA TRACON SMA TRACON (SMA)
10:31AM 39.8811 -75.1394 161° South 212 244 3,900 -1,200 Descending FAA TRACON SMA TRACON (SMA)
10:32AM 39.8586 -75.1300 162° South 210 242 3,200 -1,680 Descending FAA TRACON SMA TRACON (SMA)
10:32AM 39.8408 -75.1231 163° South 215 247 2,800 -1,200 Descending FAA TRACON SMA TRACON (SMA)
10:32AM 39.8233 -75.1164 164° South 213 245 2,400 -1,200 Descending FAA TRACON SMA TRACON (SMA)